createdAt,value
2016-05-31T00:00:04.781Z,20.03
2016-05-31T00:01:04.689Z,19.94
2016-05-31T00:03:04.961Z,19.93
2016-05-31T00:04:04.932Z,19.88
2016-05-31T00:08:04.661Z,19.94
2016-05-31T00:10:32.339Z,19.93
2016-05-31T00:11:05.357Z,19.93
2016-05-31T00:12:04.485Z,19.91
2016-05-31T00:13:04.612Z,19.94
2016-05-31T00:14:04.584Z,19.91
2016-05-31T00:15:18.243Z,19.93
2016-05-31T00:16:04.777Z,19.88
2016-05-31T00:17:18.326Z,19.91
2016-05-31T00:18:18.250Z,19.94
2016-05-31T00:19:18.129Z,19.9
2016-05-31T00:20:18.132Z,19.86
2016-05-31T00:21:18.446Z,19.93
2016-05-31T00:22:19.339Z,19.88
2016-05-31T00:24:04.547Z,19.9
2016-05-31T00:25:17.020Z,19.88
2016-05-31T00:26:04.288Z,19.86
2016-05-31T00:29:27.390Z,19.86
2016-05-31T00:30:27.283Z,19.91
2016-05-31T00:31:14.895Z,19.88
2016-05-31T00:32:13.694Z,19.83
2016-05-31T00:33:13.572Z,19.88
2016-05-31T00:34:14.216Z,19.93
2016-05-31T00:36:13.455Z,19.88
2016-05-31T00:37:14.083Z,19.86
2016-05-31T00:39:14.120Z,19.87
2016-05-31T00:43:27.115Z,19.83
2016-05-31T00:44:13.977Z,19.84
2016-05-31T00:45:26.995Z,19.78
2016-05-31T00:46:15.029Z,19.9
2016-05-31T00:47:13.438Z,19.83
2016-05-31T00:48:27.019Z,19.72
2016-05-31T00:49:13.304Z,19.76
2016-05-31T00:50:13.196Z,19.73
2016-05-31T00:51:26.808Z,19.72
2016-05-31T00:52:27.280Z,19.72
2016-05-31T00:53:26.736Z,19.73
2016-05-31T00:54:26.910Z,19.75
2016-05-31T00:55:14.553Z,19.83
2016-05-31T00:56:14.556Z,19.78
2016-05-31T00:57:14.481Z,19.79
2016-05-31T00:58:13.795Z,19.78
2016-05-31T00:59:26.752Z,19.7
2016-05-31T01:00:13.005Z,19.69
2016-05-31T01:01:13.616Z,19.75
2016-05-31T01:02:13.572Z,19.68
2016-05-31T01:03:26.731Z,19.65
2016-05-31T01:05:12.768Z,19.6
2016-05-31T01:07:14.305Z,19.6
2016-05-31T01:08:12.854Z,19.6
2016-05-31T01:09:13.091Z,19.58
2016-05-31T01:10:12.828Z,19.6
2016-05-31T01:11:13.440Z,19.63
2016-05-31T01:12:12.771Z,19.61
2016-05-31T01:13:13.665Z,19.57
2016-05-31T01:14:40.104Z,19.61
2016-05-31T01:15:12.779Z,19.57
2016-05-31T01:16:13.391Z,19.6
2016-05-31T01:17:18.925Z,19.58
2016-05-31T01:18:12.912Z,19.51
2016-05-31T01:19:12.696Z,19.47
2016-05-31T01:20:12.636Z,19.48
2016-05-31T01:21:26.420Z,19.47
2016-05-31T01:22:12.548Z,19.4
2016-05-31T01:23:12.941Z,19.4
2016-05-31T01:24:26.398Z,19.5
2016-05-31T01:25:26.243Z,19.47
2016-05-31T01:27:12.717Z,19.5
2016-05-31T01:29:12.879Z,19.39
2016-05-31T01:30:13.148Z,19.36
2016-05-31T01:31:12.650Z,19.42
2016-05-31T01:32:17.778Z,19.39
2016-05-31T01:33:12.983Z,19.4
2016-05-31T01:34:12.800Z,19.32
2016-05-31T01:35:13.161Z,19.39
2016-05-31T01:36:25.866Z,19.29
2016-05-31T01:37:12.370Z,19.29
2016-05-31T01:40:12.815Z,19.29
2016-05-31T01:41:28.896Z,19.2
2016-05-31T01:42:12.882Z,19.32
2016-05-31T01:44:12.873Z,19.23
2016-05-31T01:45:12.672Z,19.18
2016-05-31T01:46:12.987Z,19.14
2016-05-31T01:50:26.342Z,19.17
2016-05-31T01:51:25.563Z,19.15
2016-05-31T01:52:25.676Z,19.15
2016-05-31T01:53:12.662Z,19.15
2016-05-31T01:54:11.900Z,19.15
2016-05-31T01:55:25.606Z,19.18
2016-05-31T01:56:26.140Z,19.18
2016-05-31T01:57:11.767Z,19.2
2016-05-31T01:58:11.879Z,19.23
2016-05-31T01:59:25.538Z,19.18
2016-05-31T02:00:26.369Z,19.21
2016-05-31T02:01:25.497Z,19.13
2016-05-31T02:02:25.890Z,19.15
2016-05-31T02:03:12.205Z,19.13
2016-05-31T02:04:39.145Z,19.17
2016-05-31T02:05:11.741Z,19.11
2016-05-31T02:06:12.292Z,19.21
2016-05-31T02:08:11.687Z,19.23
2016-05-31T02:10:11.614Z,19.13
2016-05-31T02:11:11.539Z,19.15
2016-05-31T02:12:38.980Z,19.06
2016-05-31T02:14:11.782Z,19.17
2016-05-31T02:15:11.503Z,19.13
2016-05-31T02:16:14.505Z,19.11
2016-05-31T02:17:12.055Z,19.15
2016-05-31T02:18:11.261Z,19.18
2016-05-31T02:19:11.421Z,19.17
2016-05-31T02:21:11.848Z,19.15
2016-05-31T02:22:11.381Z,19.14
2016-05-31T02:23:11.306Z,19.14
2016-05-31T02:26:11.283Z,19.06
2016-05-31T02:27:24.989Z,19.1
2016-05-31T02:28:24.976Z,19.05
2016-05-31T02:29:11.088Z,19.13
2016-05-31T02:30:10.997Z,19.02
2016-05-31T02:31:25.046Z,19.15
2016-05-31T02:32:11.298Z,19.14
2016-05-31T02:33:11.161Z,19.17
2016-05-31T02:34:11.086Z,19.1
2016-05-31T02:35:11.073Z,19.15
2016-05-31T02:36:10.903Z,19.11
2016-05-31T02:37:25.359Z,19.1
2016-05-31T02:38:25.643Z,19.13
2016-05-31T02:39:11.067Z,19.18
2016-05-31T02:40:11.430Z,19.2
2016-05-31T02:41:17.057Z,19.2
2016-05-31T02:42:12.325Z,19.2
2016-05-31T02:43:10.938Z,19.18
2016-05-31T02:44:11.441Z,19.1
2016-05-31T02:45:10.912Z,19.17
2016-05-31T02:47:24.417Z,19.17
2016-05-31T02:48:10.779Z,19.17
2016-05-31T02:49:10.829Z,19.17
2016-05-31T02:50:11.035Z,19.18
2016-05-31T02:52:12.352Z,19.18
2016-05-31T02:53:10.965Z,19.18
2016-05-31T02:55:10.814Z,19.14
2016-05-31T02:58:10.712Z,19.18
2016-05-31T03:02:24.239Z,19.13
2016-05-31T03:05:24.200Z,19.15
2016-05-31T03:06:24.140Z,19.2
2016-05-31T03:07:10.439Z,19.2
2016-05-31T03:08:10.725Z,19.14
2016-05-31T03:09:10.383Z,19.14
2016-05-31T03:10:10.433Z,19.2
2016-05-31T03:11:24.075Z,19.15
2016-05-31T03:13:10.675Z,19.18
2016-05-31T03:14:23.990Z,19.14
2016-05-31T03:15:10.289Z,19.18
2016-05-31T03:16:10.292Z,19.14
2016-05-31T03:17:23.966Z,19.2
2016-05-31T03:19:10.394Z,19.15
2016-05-31T03:20:10.787Z,19.13
2016-05-31T03:21:10.759Z,19.21
2016-05-31T03:22:09.949Z,19.17
2016-05-31T03:24:24.110Z,19.14
2016-05-31T03:25:23.770Z,19.24
2016-05-31T03:26:23.741Z,19.2
2016-05-31T03:27:10.087Z,19.2
2016-05-31T03:28:09.995Z,19.23
2016-05-31T03:29:10.015Z,19.17
2016-05-31T03:30:10.798Z,19.17
2016-05-31T03:31:09.942Z,19.2
2016-05-31T03:32:10.820Z,19.24
2016-05-31T03:34:10.528Z,19.2
2016-05-31T03:36:09.909Z,19.2
2016-05-31T03:39:09.620Z,19.17
2016-05-31T03:40:09.763Z,19.28
2016-05-31T03:41:09.719Z,19.2
2016-05-31T03:42:23.986Z,19.14
2016-05-31T03:43:23.396Z,19.18
2016-05-31T03:44:09.680Z,19.14
2016-05-31T03:45:23.369Z,19.15
2016-05-31T03:46:09.639Z,19.18
2016-05-31T03:47:23.172Z,19.18
2016-05-31T03:48:23.627Z,19.18
2016-05-31T03:49:23.319Z,19.15
2016-05-31T03:50:10.133Z,19.17
2016-05-31T03:51:09.526Z,19.24
2016-05-31T03:52:09.514Z,19.2
2016-05-31T03:53:10.220Z,19.24
2016-05-31T03:54:09.488Z,19.23
2016-05-31T03:55:23.163Z,19.14
2016-05-31T03:56:09.915Z,19.17
2016-05-31T03:57:23.121Z,19.28
2016-05-31T03:58:09.343Z,19.14
2016-05-31T03:59:36.798Z,19.2
2016-05-31T04:00:10.598Z,19.14
2016-05-31T04:01:10.834Z,19.21
2016-05-31T04:02:11.041Z,19.23
2016-05-31T04:03:10.122Z,19.24
2016-05-31T04:04:09.249Z,19.21
2016-05-31T04:05:09.253Z,19.15
2016-05-31T04:06:09.614Z,19.23
2016-05-31T04:07:22.897Z,19.24
2016-05-31T04:08:10.088Z,19.25
2016-05-31T04:10:09.187Z,19.21
2016-05-31T04:12:22.787Z,19.23
2016-05-31T04:13:36.492Z,19.31
2016-05-31T04:14:12.104Z,19.24
2016-05-31T04:16:09.016Z,19.32
2016-05-31T04:17:23.331Z,19.28
2016-05-31T04:18:08.974Z,19.24
2016-05-31T04:19:09.008Z,19.2
2016-05-31T04:20:08.918Z,19.25
2016-05-31T04:21:08.904Z,19.21
2016-05-31T04:22:23.251Z,19.25
2016-05-31T04:23:22.613Z,19.28
2016-05-31T04:24:22.429Z,19.28
2016-05-31T04:25:22.477Z,19.32
2016-05-31T04:26:11.605Z,19.29
2016-05-31T04:27:09.483Z,19.25
2016-05-31T04:28:09.079Z,19.31
2016-05-31T04:29:08.566Z,19.31
2016-05-31T04:30:08.740Z,19.24
2016-05-31T04:31:09.448Z,19.32
2016-05-31T04:32:08.918Z,19.18
2016-05-31T04:33:08.655Z,19.24
2016-05-31T04:34:08.659Z,19.23
2016-05-31T04:36:08.616Z,19.25
2016-05-31T04:38:08.778Z,19.21
2016-05-31T04:39:09.187Z,19.25
2016-05-31T04:41:08.740Z,19.32
2016-05-31T04:42:08.695Z,19.33
2016-05-31T04:43:08.979Z,19.36
2016-05-31T04:44:09.294Z,19.33
2016-05-31T04:45:08.266Z,19.33
2016-05-31T04:48:09.805Z,19.33
2016-05-31T04:49:08.949Z,19.43
2016-05-31T04:50:08.326Z,19.42
2016-05-31T04:51:08.297Z,19.39
2016-05-31T04:52:22.238Z,19.36
2016-05-31T04:53:22.241Z,19.4
2016-05-31T04:54:08.712Z,19.47
2016-05-31T04:55:08.246Z,19.39
2016-05-31T04:56:08.139Z,19.36
2016-05-31T04:57:08.188Z,19.48
2016-05-31T04:58:22.129Z,19.42
2016-05-31T04:59:22.131Z,19.39
2016-05-31T05:00:21.822Z,19.48
2016-05-31T05:01:21.793Z,19.5
2016-05-31T05:02:09.530Z,19.55
2016-05-31T05:03:09.393Z,19.6
2016-05-31T05:04:08.489Z,19.58
2016-05-31T05:05:07.851Z,19.54
2016-05-31T05:06:08.697Z,19.54
2016-05-31T05:07:07.920Z,19.57
2016-05-31T05:08:07.937Z,19.63
2016-05-31T05:09:21.627Z,19.61
2016-05-31T05:10:08.161Z,19.65
2016-05-31T05:11:21.585Z,19.68
2016-05-31T05:14:09.078Z,19.69
2016-05-31T05:15:09.519Z,19.63
2016-05-31T05:16:07.786Z,19.58
2016-05-31T05:17:07.977Z,19.61
2016-05-31T05:18:07.744Z,19.6
2016-05-31T05:19:07.686Z,19.61
2016-05-31T05:20:08.344Z,19.58
2016-05-31T05:21:07.707Z,19.61
2016-05-31T05:22:07.709Z,19.61
2016-05-31T05:23:08.133Z,19.66
2016-05-31T05:25:08.217Z,19.65
2016-05-31T05:26:07.626Z,19.65
2016-05-31T05:27:08.035Z,19.68
2016-05-31T05:28:07.569Z,19.66
2016-05-31T05:29:21.321Z,19.66
2016-05-31T05:30:07.481Z,19.66
2016-05-31T05:31:07.499Z,19.66
2016-05-31T05:32:21.095Z,19.78
2016-05-31T05:33:07.723Z,19.68
2016-05-31T05:34:07.429Z,19.72
2016-05-31T05:35:21.370Z,19.69
2016-05-31T05:36:07.372Z,19.75
2016-05-31T05:37:07.906Z,19.76
2016-05-31T05:38:07.720Z,19.69
2016-05-31T05:39:07.895Z,19.76
2016-05-31T05:40:07.211Z,19.69
2016-05-31T05:41:07.275Z,19.76
2016-05-31T05:42:07.107Z,19.73
2016-05-31T05:43:20.984Z,19.72
2016-05-31T05:44:07.206Z,19.7
2016-05-31T05:45:07.208Z,19.78
2016-05-31T05:47:20.855Z,19.73
2016-05-31T05:48:07.154Z,19.68
2016-05-31T05:49:07.141Z,19.65
2016-05-31T05:50:07.049Z,19.7
2016-05-31T05:51:07.116Z,19.73
2016-05-31T05:52:07.071Z,19.75
2016-05-31T05:53:08.510Z,19.84
2016-05-31T05:54:07.108Z,19.75
2016-05-31T05:55:07.423Z,19.86
2016-05-31T05:57:20.671Z,19.72
2016-05-31T05:59:07.527Z,19.72
2016-05-31T06:00:07.087Z,19.7
2016-05-31T06:01:06.944Z,19.76
2016-05-31T06:02:07.109Z,19.7
2016-05-31T06:03:07.011Z,19.65
2016-05-31T06:04:20.977Z,19.76
2016-05-31T06:05:20.646Z,19.83
2016-05-31T06:06:20.658Z,19.78
2016-05-31T06:07:06.933Z,19.69
2016-05-31T06:08:06.799Z,19.76
2016-05-31T06:09:07.556Z,19.7
2016-05-31T06:10:20.624Z,19.83
2016-05-31T06:11:08.318Z,19.78
2016-05-31T06:12:06.870Z,19.78
2016-05-31T06:13:06.701Z,19.79
2016-05-31T06:14:20.534Z,19.86
2016-05-31T06:15:06.772Z,19.87
2016-05-31T06:16:07.697Z,19.83
2016-05-31T06:17:07.389Z,19.83
2016-05-31T06:18:20.470Z,19.87
2016-05-31T06:19:20.426Z,19.87
2016-05-31T06:20:06.726Z,19.93
2016-05-31T06:21:26.776Z,19.73
2016-05-31T06:22:06.780Z,19.86
2016-05-31T06:23:08.407Z,19.83
2016-05-31T06:26:07.415Z,19.79
2016-05-31T06:27:06.402Z,19.88
2016-05-31T06:28:06.607Z,19.76
2016-05-31T06:29:06.548Z,19.76
2016-05-31T06:30:07.348Z,19.73
2016-05-31T06:31:06.443Z,19.86
2016-05-31T06:33:06.480Z,19.88
2016-05-31T06:34:06.640Z,19.88
2016-05-31T06:35:20.220Z,19.86
2016-05-31T06:36:06.317Z,19.87
2016-05-31T06:37:06.475Z,19.88
2016-05-31T06:38:06.791Z,19.88
2016-05-31T06:39:19.981Z,19.94
2016-05-31T06:40:06.295Z,19.95
2016-05-31T06:41:19.955Z,20
2016-05-31T06:42:20.270Z,20.13
2016-05-31T06:43:19.929Z,20.16
2016-05-31T06:44:06.213Z,20.1
2016-05-31T06:45:06.591Z,20.2
2016-05-31T06:46:19.952Z,20.15
2016-05-31T06:47:06.206Z,20.12
2016-05-31T06:48:06.146Z,20.1
2016-05-31T06:49:06.117Z,20.13
2016-05-31T06:50:06.120Z,20.24
2016-05-31T06:51:19.779Z,20.31
2016-05-31T06:52:06.953Z,20.2
2016-05-31T06:53:06.096Z,20.18
2016-05-31T06:54:19.724Z,20.27
2016-05-31T06:55:06.071Z,20.25
2016-05-31T06:56:06.574Z,20.28
2016-05-31T06:57:06.076Z,20.24
2016-05-31T06:58:22.657Z,20.27
2016-05-31T06:59:05.847Z,20.25
2016-05-31T07:00:06.054Z,20.31
2016-05-31T07:01:06.837Z,20.3
2016-05-31T07:02:06.043Z,20.28
2016-05-31T07:03:05.857Z,20.27
2016-05-31T07:04:21.095Z,20.35
2016-05-31T07:05:05.863Z,20.35
2016-05-31T07:07:06.228Z,20.42
2016-05-31T07:08:07.325Z,20.38
2016-05-31T07:09:05.953Z,20.49
2016-05-31T07:10:05.548Z,20.5
2016-05-31T07:11:05.551Z,20.47
2016-05-31T07:12:05.694Z,20.49
2016-05-31T07:13:05.729Z,20.39
2016-05-31T07:14:19.137Z,20.42
2016-05-31T07:15:05.672Z,20.58
2016-05-31T07:16:06.236Z,20.54
2016-05-31T07:18:19.632Z,20.62
2016-05-31T07:19:19.245Z,20.64
2016-05-31T07:20:05.982Z,20.64
2016-05-31T07:21:05.594Z,20.64
2016-05-31T07:22:05.955Z,20.51
2016-05-31T07:23:20.022Z,20.59
2016-05-31T07:24:05.493Z,20.65
2016-05-31T07:25:05.838Z,20.66
2016-05-31T07:26:19.169Z,20.64
2016-05-31T07:27:05.516Z,20.65
2016-05-31T07:28:05.582Z,20.65
2016-05-31T07:29:06.209Z,20.71
2016-05-31T07:30:19.024Z,20.64
2016-05-31T07:31:05.387Z,20.58
2016-05-31T07:32:05.436Z,20.66
2016-05-31T07:33:06.860Z,20.69
2016-05-31T07:34:06.551Z,20.61
2016-05-31T07:35:05.412Z,20.65
2016-05-31T07:36:05.962Z,20.68
2016-05-31T07:37:05.153Z,20.66
2016-05-31T07:38:05.515Z,20.69
2016-05-31T07:39:05.251Z,20.69
2016-05-31T07:40:05.129Z,20.69
2016-05-31T07:41:05.710Z,20.66
2016-05-31T07:42:05.181Z,20.66
2016-05-31T07:43:05.340Z,20.62
2016-05-31T07:46:05.271Z,20.59
2016-05-31T07:47:05.586Z,20.64
2016-05-31T07:48:18.682Z,20.53
2016-05-31T07:49:06.669Z,20.64
2016-05-31T07:50:05.016Z,20.69
2016-05-31T07:51:04.894Z,20.74
2016-05-31T07:52:18.599Z,20.68
2016-05-31T07:53:04.805Z,20.72
2016-05-31T07:54:04.823Z,20.69
2016-05-31T07:55:18.295Z,20.69
2016-05-31T07:56:05.219Z,20.68
2016-05-31T07:57:18.488Z,20.76
2016-05-31T07:59:18.680Z,20.76
2016-05-31T08:00:04.699Z,20.76
2016-05-31T08:01:04.921Z,20.69
2016-05-31T08:02:05.298Z,20.71
2016-05-31T08:03:04.550Z,20.71
2016-05-31T08:04:06.726Z,20.72
2016-05-31T08:05:04.619Z,20.74
2016-05-31T08:07:05.233Z,20.65
2016-05-31T08:08:18.517Z,20.72
2016-05-31T08:10:18.398Z,20.76
2016-05-31T08:11:31.901Z,20.77
2016-05-31T08:12:04.497Z,20.83
2016-05-31T08:13:04.499Z,20.83
2016-05-31T08:14:19.159Z,20.84
2016-05-31T08:15:04.645Z,20.9
2016-05-31T08:16:04.476Z,20.84
2016-05-31T08:17:04.572Z,20.84
2016-05-31T08:18:05.263Z,20.83
2016-05-31T08:22:06.008Z,20.9
2016-05-31T08:24:04.185Z,20.93
2016-05-31T08:25:04.266Z,20.89
2016-05-31T08:26:04.097Z,20.9
2016-05-31T08:27:17.849Z,20.91
2016-05-31T08:28:17.930Z,20.95
2016-05-31T08:29:04.151Z,21.01
2016-05-31T08:30:17.827Z,20.99
2016-05-31T08:31:04.126Z,20.99
2016-05-31T08:32:04.019Z,20.96
2016-05-31T08:33:03.990Z,21.04
2016-05-31T08:34:04.431Z,20.99
2016-05-31T08:35:04.621Z,20.98
2016-05-31T08:36:03.998Z,20.98
2016-05-31T08:37:17.690Z,21.02
2016-05-31T08:38:04.207Z,21.06
2016-05-31T08:39:04.351Z,21.04
2016-05-31T08:40:04.134Z,21.09
2016-05-31T08:41:04.840Z,21.05
2016-05-31T08:42:17.593Z,21.05
2016-05-31T08:43:04.142Z,21.02
2016-05-31T08:44:17.645Z,21.09
2016-05-31T08:45:04.414Z,21.06
2016-05-31T08:46:04.025Z,21.14
2016-05-31T08:47:03.997Z,21.16
2016-05-31T08:48:04.578Z,21.16
2016-05-31T08:50:03.895Z,21.09
2016-05-31T08:51:04.648Z,21.08
2016-05-31T08:52:03.760Z,21.05
2016-05-31T08:53:03.528Z,21.13
2016-05-31T08:54:04.625Z,20.99
2016-05-31T08:58:04.058Z,21.06
2016-05-31T08:59:17.982Z,21.08
2016-05-31T09:00:03.657Z,21.09
2016-05-31T09:01:03.785Z,21.04
2016-05-31T09:02:04.927Z,21.06
2016-05-31T09:03:03.587Z,21.02
2016-05-31T09:04:03.465Z,21.02
2016-05-31T09:05:03.467Z,20.99
2016-05-31T09:06:03.501Z,21.01
2016-05-31T09:07:17.379Z,20.96
2016-05-31T09:08:04.085Z,20.95
2016-05-31T09:09:17.228Z,20.98
2016-05-31T09:10:03.778Z,20.93
2016-05-31T09:11:03.983Z,20.99
2016-05-31T09:12:04.548Z,20.98
2016-05-31T09:13:03.817Z,21.01
2016-05-31T09:15:03.275Z,21.05
2016-05-31T09:16:16.794Z,21.13
2016-05-31T09:17:16.983Z,21.14
2016-05-31T09:19:03.427Z,21.13
2016-05-31T09:20:03.742Z,21.11
2016-05-31T09:21:03.275Z,21.09
2016-05-31T09:22:03.873Z,21.14
2016-05-31T09:23:03.155Z,21.19
2016-05-31T09:24:03.331Z,21.16
2016-05-31T09:25:03.755Z,21.17
2016-05-31T09:26:03.258Z,21.21
2016-05-31T09:27:03.057Z,21.29
2016-05-31T09:31:03.115Z,21.32
2016-05-31T09:32:02.834Z,21.41
2016-05-31T09:33:02.822Z,21.36
2016-05-31T09:34:06.296Z,21.39
2016-05-31T09:35:02.843Z,21.36
2016-05-31T09:37:03.241Z,21.5
2016-05-31T09:38:02.710Z,21.46
2016-05-31T09:39:02.775Z,21.44
2016-05-31T09:40:02.621Z,21.53
2016-05-31T09:41:03.124Z,21.53
2016-05-31T09:42:16.426Z,21.54
2016-05-31T09:43:03.772Z,21.54
2016-05-31T09:44:03.494Z,21.56
2016-05-31T09:45:03.072Z,21.56
2016-05-31T09:46:02.887Z,21.61
2016-05-31T09:47:02.765Z,21.69
2016-05-31T09:48:02.689Z,21.59
2016-05-31T09:49:03.301Z,21.54
2016-05-31T09:50:02.976Z,21.59
2016-05-31T09:51:03.073Z,21.6
2016-05-31T09:52:02.544Z,21.57
2016-05-31T09:53:02.578Z,21.53
2016-05-31T09:54:02.330Z,21.53
2016-05-31T09:55:02.802Z,21.56
2016-05-31T09:56:02.445Z,21.57
2016-05-31T09:57:02.480Z,21.54
2016-05-31T09:58:02.435Z,21.51
2016-05-31T09:59:02.750Z,21.5
2016-05-31T10:01:02.881Z,21.57
2016-05-31T10:02:03.008Z,21.56
2016-05-31T10:03:02.339Z,21.51
2016-05-31T10:04:02.404Z,21.53
2016-05-31T10:05:02.376Z,21.53
2016-05-31T10:06:02.143Z,21.61
2016-05-31T10:07:02.788Z,21.61
2016-05-31T10:08:02.087Z,21.6
2016-05-31T10:09:02.215Z,21.66
2016-05-31T10:10:02.326Z,21.67
2016-05-31T10:11:02.205Z,21.66
2016-05-31T10:12:02.129Z,21.71
2016-05-31T10:13:02.195Z,21.67
2016-05-31T10:14:15.856Z,21.76
2016-05-31T10:15:02.293Z,21.78
2016-05-31T10:16:16.331Z,21.88
2016-05-31T10:17:02.284Z,21.83
2016-05-31T10:18:15.679Z,21.88
2016-05-31T10:19:15.931Z,21.79
2016-05-31T10:20:03.509Z,21.9
2016-05-31T10:21:01.920Z,21.81
2016-05-31T10:22:02.265Z,21.9
2016-05-31T10:23:02.439Z,21.82
2016-05-31T10:24:01.834Z,21.78
2016-05-31T10:25:15.635Z,21.85
2016-05-31T10:26:02.338Z,21.76
2016-05-31T10:27:15.563Z,21.76
2016-05-31T10:28:02.031Z,21.78
2016-05-31T10:29:15.599Z,21.83
2016-05-31T10:31:15.558Z,21.69
2016-05-31T10:32:02.058Z,21.78
2016-05-31T10:33:01.826Z,21.78
2016-05-31T10:34:01.922Z,21.69
2016-05-31T10:36:02.052Z,21.59
2016-05-31T10:37:01.821Z,21.63
2016-05-31T10:38:03.012Z,21.54
2016-05-31T10:39:04.155Z,21.54
2016-05-31T10:40:01.845Z,21.56
2016-05-31T10:42:03.194Z,21.45
2016-05-31T10:43:01.993Z,21.41
2016-05-31T10:44:01.356Z,21.35
2016-05-31T10:45:01.796Z,21.35
2016-05-31T10:46:03.251Z,21.29
2016-05-31T10:47:01.317Z,21.36
2016-05-31T10:48:01.585Z,21.34
2016-05-31T10:49:01.791Z,21.29
2016-05-31T10:50:01.263Z,21.32
2016-05-31T10:51:15.409Z,21.41
2016-05-31T10:52:01.425Z,21.41
2016-05-31T10:53:15.304Z,21.44
2016-05-31T10:54:01.679Z,21.53
2016-05-31T10:55:01.792Z,21.57
2016-05-31T10:56:01.638Z,21.59
2016-05-31T10:57:02.078Z,21.71
2016-05-31T10:58:01.253Z,21.75
2016-05-31T10:59:01.396Z,21.88
2016-05-31T11:00:01.867Z,21.99
2016-05-31T11:01:01.402Z,21.98
2016-05-31T11:02:01.326Z,22.13
2016-05-31T11:03:14.847Z,22.12
2016-05-31T11:04:14.880Z,22.12
2016-05-31T11:05:04.177Z,22.14
2016-05-31T11:06:01.930Z,22.23
2016-05-31T11:07:01.683Z,22.34
2016-05-31T11:08:01.638Z,22.37
2016-05-31T11:09:02.189Z,22.41
2016-05-31T11:10:01.941Z,22.49
2016-05-31T11:11:01.037Z,22.49
2016-05-31T11:12:01.040Z,22.44
2016-05-31T11:13:00.871Z,22.38
2016-05-31T11:14:01.920Z,22.46
2016-05-31T11:15:00.955Z,22.38
2016-05-31T11:17:01.038Z,22.43
2016-05-31T11:18:00.963Z,22.46
2016-05-31T11:19:01.012Z,22.39
2016-05-31T11:20:01.359Z,22.44
2016-05-31T11:21:00.830Z,22.5
2016-05-31T11:22:01.630Z,22.5
2016-05-31T11:23:00.539Z,22.5
2016-05-31T11:24:01.245Z,22.46
2016-05-31T11:25:01.059Z,22.49
2016-05-31T11:26:00.906Z,22.46
2016-05-31T11:27:00.722Z,22.43
2016-05-31T11:28:01.771Z,22.47
2016-05-31T11:29:00.695Z,22.46
2016-05-31T11:30:02.073Z,22.47
2016-05-31T11:31:01.404Z,22.62
2016-05-31T11:32:00.985Z,22.56
2016-05-31T11:33:00.721Z,22.57
2016-05-31T11:34:00.616Z,22.57
2016-05-31T11:35:14.324Z,22.6
2016-05-31T11:36:00.605Z,22.53
2016-05-31T11:37:01.107Z,22.49
2016-05-31T11:38:00.141Z,22.46
2016-05-31T11:39:14.224Z,22.41
2016-05-31T11:40:01.053Z,22.5
2016-05-31T11:41:00.885Z,22.5
2016-05-31T11:42:00.512Z,22.37
2016-05-31T11:43:00.482Z,22.37
2016-05-31T11:44:00.299Z,22.37
2016-05-31T11:46:01.288Z,22.31
2016-05-31T11:47:01.119Z,22.28
2016-05-31T11:48:00.387Z,22.22
2016-05-31T11:49:00.233Z,22.28
2016-05-31T11:50:00.548Z,22.23
2016-05-31T11:52:00.414Z,22.19
2016-05-31T11:53:00.854Z,22.14
2016-05-31T11:54:00.278Z,22.09
2016-05-31T11:55:00.078Z,22.1
2016-05-31T11:57:00.161Z,22.06
2016-05-31T11:58:00.164Z,22.02
2016-05-31T11:59:00.183Z,21.99
2016-05-31T12:00:00.185Z,22.02
2016-05-31T12:01:00.266Z,21.92
2016-05-31T12:02:00.487Z,21.99
2016-05-31T12:03:14.040Z,21.94
2016-05-31T12:04:00.025Z,21.97
2016-05-31T12:05:00.589Z,21.9
2016-05-31T12:06:00.249Z,21.88
2016-05-31T12:07:00.485Z,22.01
2016-05-31T12:07:59.987Z,22.06
2016-05-31T12:09:00.663Z,22.38
2016-05-31T12:10:13.683Z,22.57
2016-05-31T12:11:00.168Z,22.56
2016-05-31T12:12:00.343Z,22.75
2016-05-31T12:13:13.566Z,23.11
2016-05-31T12:14:00.129Z,23.2
2016-05-31T12:15:59.868Z,23.09
2016-05-31T12:18:00.687Z,23.35
2016-05-31T12:19:00.986Z,23.32
2016-05-31T12:19:59.739Z,23.32
2016-05-31T12:20:59.929Z,23.31
2016-05-31T12:21:59.979Z,23.23
2016-05-31T12:22:59.888Z,23.31
2016-05-31T12:24:00.015Z,23.19
2016-05-31T12:25:00.017Z,23.17
2016-05-31T12:27:03.430Z,23.09
2016-05-31T12:29:59.672Z,23.07
2016-05-31T12:30:59.816Z,22.96
2016-05-31T12:31:59.771Z,22.99
2016-05-31T12:32:59.789Z,23.01
2016-05-31T12:33:59.932Z,22.89
2016-05-31T12:34:59.654Z,22.96
2016-05-31T12:35:59.579Z,23.01
2016-05-31T12:36:59.613Z,22.87
2016-05-31T12:38:13.087Z,22.94
2016-05-31T12:38:59.852Z,23.02
2016-05-31T12:39:59.402Z,23.07
2016-05-31T12:41:13.048Z,23.26
2016-05-31T12:42:00.079Z,23.31
2016-05-31T12:42:59.348Z,23.31
2016-05-31T12:43:59.429Z,23.14
2016-05-31T12:44:59.353Z,23.23
2016-05-31T12:45:59.699Z,23.34
2016-05-31T12:46:59.733Z,23.31
2016-05-31T12:47:59.532Z,23.31
2016-05-31T12:49:00.146Z,23.4
2016-05-31T12:49:59.335Z,23.39
2016-05-31T12:51:26.543Z,23.43
2016-05-31T12:52:13.140Z,23.35
2016-05-31T12:52:59.468Z,23.47
2016-05-31T12:53:59.298Z,23.5
2016-05-31T12:54:59.520Z,23.58
2016-05-31T12:55:58.961Z,23.55
2016-05-31T12:56:59.401Z,23.62
2016-05-31T12:57:59.669Z,23.83
2016-05-31T12:58:58.875Z,23.92
2016-05-31T12:59:59.065Z,23.97
2016-05-31T13:02:12.698Z,23.95
2016-05-31T13:04:00.311Z,23.87
2016-05-31T13:04:58.657Z,23.72
2016-05-31T13:06:12.615Z,23.61
2016-05-31T13:06:58.740Z,23.57
2016-05-31T13:07:58.806Z,23.53
2016-05-31T13:08:59.386Z,23.52
2016-05-31T13:09:58.858Z,23.43
2016-05-31T13:10:58.751Z,23.35
2016-05-31T13:11:58.707Z,23.29
2016-05-31T13:12:59.006Z,23.24
2016-05-31T13:14:12.496Z,23.12
2016-05-31T13:14:58.809Z,23.14
2016-05-31T13:15:58.812Z,23.05
2016-05-31T13:17:12.442Z,23.04
2016-05-31T13:17:59.379Z,22.97
2016-05-31T13:19:00.070Z,22.87
2016-05-31T13:19:59.118Z,22.83
2016-05-31T13:21:03.903Z,22.83
2016-05-31T13:21:58.484Z,22.72
2016-05-31T13:22:58.721Z,22.71
2016-05-31T13:23:58.583Z,22.75
2016-05-31T13:24:58.570Z,22.69
2016-05-31T13:25:58.556Z,22.72
2016-05-31T13:26:58.607Z,22.69
2016-05-31T13:28:12.205Z,22.77
2016-05-31T13:29:25.850Z,23.26
2016-05-31T13:29:58.631Z,23.31
2016-05-31T13:30:59.586Z,23.46
2016-05-31T13:31:59.900Z,23.61
2016-05-31T13:32:58.670Z,23.7
2016-05-31T13:33:58.828Z,23.79
2016-05-31T13:34:58.409Z,23.82
2016-05-31T13:36:12.914Z,23.86
2016-05-31T13:36:58.961Z,23.97
2016-05-31T13:38:02.871Z,24.13
2016-05-31T13:38:58.638Z,24.1
2016-05-31T13:41:58.631Z,24.19
2016-05-31T13:42:58.900Z,24.22
2016-05-31T13:43:58.558Z,24.41
2016-05-31T13:44:59.077Z,24.24
2016-05-31T13:45:58.471Z,24.39
2016-05-31T13:46:58.332Z,24.41
2016-05-31T13:48:58.056Z,24.44
2016-05-31T13:50:11.937Z,24.38
2016-05-31T13:51:11.580Z,24.29
2016-05-31T13:51:58.627Z,24.14
2016-05-31T13:52:58.926Z,24.29
2016-05-31T13:53:58.492Z,24.31
2016-05-31T13:55:10.965Z,24.27
2016-05-31T13:55:58.090Z,24.29
2016-05-31T13:57:01.625Z,24.34
2016-05-31T13:57:59.065Z,24.26
2016-05-31T13:59:58.961Z,24.44
2016-05-31T14:01:11.842Z,24.91
2016-05-31T14:02:24.125Z,25.2
2016-05-31T14:03:58.080Z,25.59
2016-05-31T14:04:58.022Z,26.18
2016-05-31T14:06:11.808Z,26.69
2016-05-31T14:06:58.277Z,26.92
2016-05-31T14:08:12.094Z,26.81
2016-05-31T14:08:58.282Z,26.69
2016-05-31T14:09:57.738Z,26.58
2016-05-31T14:10:58.146Z,26.61
2016-05-31T14:11:58.008Z,26.68
2016-05-31T14:12:58.386Z,27.11
2016-05-31T14:13:58.093Z,27.53
2016-05-31T14:14:57.798Z,28.32
2016-05-31T14:17:57.728Z,28.95
2016-05-31T14:18:57.637Z,28.8
2016-05-31T14:19:59.217Z,28.35
2016-05-31T14:20:57.596Z,28.04
2016-05-31T14:22:11.507Z,27.69
2016-05-31T14:22:57.648Z,27.5
2016-05-31T14:23:57.651Z,27.29
2016-05-31T14:24:57.575Z,27.02
2016-05-31T14:26:11.173Z,26.81
2016-05-31T14:26:57.486Z,26.69
2016-05-31T14:27:59.223Z,26.58
2016-05-31T14:29:11.589Z,26.36
2016-05-31T14:29:57.682Z,26.35
2016-05-31T14:30:57.372Z,26.11
2016-05-31T14:31:57.406Z,26.01
2016-05-31T14:32:57.487Z,26.01
2016-05-31T14:33:57.256Z,25.87
2016-05-31T14:34:57.570Z,25.67
2016-05-31T14:35:57.369Z,25.54
2016-05-31T14:37:11.391Z,25.49
2016-05-31T14:38:12.097Z,25.34
2016-05-31T14:39:10.834Z,25.25
2016-05-31T14:40:57.352Z,25.05
2016-05-31T14:41:57.918Z,24.98